• Join FlightAware (Why Join?)
  • Login
  • US Flag 
02:55AM EDT


 

Airport Tracker/Info


-or-


 

Live Flight TrackerFlight Track Log ✈ UAL3732 ✈ 22-Apr-2013 ✈ KORD - KPHL

Flight Track Log - Related Links

Times and Time Zones

All times are in EDT time to prevent confusion due to time zone crossing. See the UAL3732 flight status page for this flight to view local times or setup timezone preferences in your user account.

Time Position Orientation Groundspeed Altitude Reporting Facility
EDT Latitude Longitude Course Direction KTS MPH feet Rate Location/Type
12:56PM 41.9333 -87.9000 114° Southeast 164 189 1,800  Level Chicago TRACON
12:57PM 41.9167 -87.8500 114° Southeast 209 241 3,600 1,680 Climbing Chicago TRACON
12:58PM 41.9167 -87.7667 90° East 258 297 5,000 2,040 Climbing Chicago TRACON
01:00PM 41.9325 -87.5444 84° East 266 306 10,600 2,280 Climbing Chicago Center
01:01PM 41.9353 -87.4317 88° East 297 342 12,800 2,340 Climbing Chicago Center
01:02PM 41.9386 -87.3158 88° East 310 357 15,500 1,740 Climbing Chicago Center
01:03PM 41.9419 -87.1875 88° East 340 391 16,400 1,620 Climbing Chicago Center
01:04PM 41.9450 -87.0222 89° East 365 420 18,900 1,980 Climbing Chicago Center
01:05PM 41.9469 -86.8822 89° East 374 430 20,500 1,140 Climbing Chicago Center
01:06PM 41.9500 -86.7347 88° East 391 450 21,300 780 Climbing Chicago Center
01:07PM 41.9508 -86.5583 90° East 434 499 22,200 900 Climbing Chicago Center
01:08PM 41.9536 -86.3933 89° East 442 509 23,200 960 Climbing Chicago Center
01:09PM 41.9536 -86.2231 90° East 452 520 24,200 960 Climbing Chicago Center
01:10PM 41.9403 -86.0528 96° East 458 527 25,300 960 Climbing Chicago Center
01:11PM 41.9242 -85.8806 97° East 463 533 26,300 960 Climbing Chicago Center
01:12PM 41.9078 -85.7086 97° East 463 533 27,300 960 Climbing Chicago Center
01:13PM 41.8917 -85.5356 97° East 463 533 28,300 960 Climbing Chicago Center
01:14PM 41.8756 -85.3617 97° East 464 534 29,300 1,020 Climbing Chicago Center
01:15PM 41.8714 -85.2936 95° East 464 534 29,700 960 Climbing Cleveland Center
01:15PM 41.8583 -85.1886 99° East 463 533 30,300 960 Climbing Chicago Center
01:16PM 41.8533 -85.1222 96° East 458 527 30,700 1,140 Climbing Cleveland Center
01:17PM 41.8333 -84.9394 98° East 458 527 31,800 1,020 Climbing Cleveland Center
01:18PM 41.8169 -84.7683 97° East 453 521 32,800 960 Climbing Cleveland Center
01:19PM 41.7997 -84.6028 98° East 453 521 33,800 960 Climbing Cleveland Center
01:20PM 41.7806 -84.4344 99° East 448 516 34,800 960 Climbing Cleveland Center
01:21PM 41.7778 -84.2700 91° East 448 516 35,800 1,020 Climbing Cleveland Center
01:22PM 41.7744 -84.1083 92° East 443 510 36,900 600 Climbing Cleveland Center
01:23PM 41.7731 -83.9467 91° East 443 510 37,000  Climbing Cleveland Center
01:24PM 41.7736 -83.7797 90° East 443 510 37,000  Level Cleveland Center
01:25PM 41.7700 -83.6097 92° East 443 510 37,000  Level Cleveland Center
01:26PM 41.7594 -83.4475 95° East 443 510 37,000  Level Cleveland Center
01:27PM 41.7425 -83.2825 98° East 443 510 37,000  Level Cleveland Center
01:28PM 41.7086 -83.1256 106° East 443 510 37,000  Level Cleveland Center
01:29PM 41.6639 -82.9764 112° Southeast 437 503 37,000  Level Cleveland Center
01:30PM 41.6233 -82.8247 110° East 432 497 37,000  Level Cleveland Center
01:31PM 41.5783 -82.6706 111° Southeast 439 505 37,000  Level Cleveland Center
01:32PM 41.5308 -82.5136 112° Southeast 447 514 37,000  Level Cleveland Center
01:33PM 41.4875 -82.3656 111° Southeast 459 528 37,000  Level Cleveland Center
01:34PM 41.4378 -82.1978 112° Southeast 471 542 37,000  Level Cleveland Center
01:35PM 41.3881 -82.0333 112° Southeast 476 548 37,000  Level Cleveland Center
01:36PM 41.3400 -81.8664 111° Southeast 476 548 37,000  Level Cleveland Center
01:37PM 41.2917 -81.6997 111° Southeast 476 548 37,000  Level Cleveland Center
01:38PM 41.2431 -81.5386 112° Southeast 476 548 37,000  Level Cleveland Center
01:39PM 41.1817 -81.3694 116° Southeast 470 541 37,100 300 Climbing Cleveland Center
01:40PM 41.0969 -81.2692 138° Southeast 447 514 37,600 420 Climbing Cleveland Center
01:41PM 40.9847 -81.2294 165° South 429 494 38,000 180 Climbing Cleveland Center
01:42PM 40.8739 -81.2642 193° South 382 440 38,000  Level Cleveland Center
01:43PM 40.8169 -81.3814 237° Southwest 366 421 38,000  Level Cleveland Center
01:44PM 40.8386 -81.5272 281° West 357 411 38,000  Level Cleveland Center
01:45PM 40.9358 -81.6358 320° Northwest 357 411 38,000  Level Cleveland Center
01:46PM 41.0669 -81.6381 359° North 374 430 38,000  Level Cleveland Center
01:47PM 41.1742 -81.5458 33° Northeast 401 461 38,000  Level Cleveland Center
01:48PM 41.2297 -81.3756 67° East 395 455 38,000 -60 Level Cleveland Center
01:49PM 41.2161 -81.2014 96° East 403 464 37,900 -360 Descending Cleveland Center
01:51PM 41.1089 -80.9219 117° Southeast 431 496 37,000 -300 Descending Cleveland Center
01:52PM 41.0508 -80.7731 117° Southeast 443 510 37,000  Level Cleveland Center
01:53PM 40.9906 -80.6217 118° Southeast 455 524 37,000  Level Cleveland Center
01:54PM 40.9300 -80.4706 118° Southeast 460 529 37,000  Level Cleveland Center
01:55PM 40.8714 -80.3194 117° Southeast 460 529 37,000  Level Cleveland Center
01:56PM 40.7961 -80.1936 128° Southeast 455 524 37,000  Level Cleveland Center
01:57PM 40.6978 -80.1094 147° Southeast 425 489 37,000  Level Cleveland Center
01:58PM 40.6017 -80.0308 148° Southeast 420 483 37,000 -420 Level Cleveland Center
01:59PM 40.4989 -79.9386 146° Southeast 415 478 36,200 -1,020 Descending Cleveland Center
02:00PM 40.4047 -79.8633 149° Southeast 410 472 35,000 -600 Descending Cleveland Center
02:01PM 40.3186 -79.7661 139° Southeast 405 466 35,000  Level Cleveland Center
02:02PM 40.2714 -79.6144 112° Southeast 414 476 35,000  Level Cleveland Center
02:03PM 40.2742 -79.4456 89° East 414 476 35,000  Level Cleveland Center
02:04PM 40.2831 -79.2986 85° East 431 496 35,000  Level Cleveland Center
02:05PM 40.2975 -79.1267 84° East 446 513 35,000  Level Cleveland Center
02:06PM 40.3078 -78.9606 85° East 459 528 35,000  Level Cleveland Center
02:07PM 40.3158 -78.7886 86° East 464 534 35,000  Level Cleveland Center
02:08PM 40.3172 -78.6225 89° East 459 528 35,000 -1,860 Level Cleveland Center
02:10PM 40.3128 -78.2436 91° East 456 525 29,100 -2,640 Descending New York Center
02:11PM 40.3119 -78.0883 90° East 434 499 26,600 -2,040 Descending New York Center
02:12PM 40.3103 -77.9439 91° East 414 476 25,000 -1,260 Descending New York Center
02:13PM 40.3392 -77.8106 74° East 382 440 24,100 -1,380 Descending New York Center
02:14PM 40.3775 -77.6919 67° East 369 425 22,300 -1,800 Descending New York Center
02:15PM 40.4075 -77.5694 72° East 356 410 20,500 -1,860 Descending New York Center
02:16PM 40.3372 -77.4861 138° Southeast 286 329 18,600 -1,560 Descending New York Center
02:17PM 40.3206 -77.3783 101° East 313 360 17,500 -840 Descending New York Center
02:18PM 40.3131 -77.2497 94° East 326 375 17,000 -300 Descending New York Center
02:19PM 40.3064 -77.1428 95° East 326 375 17,000  Level New York Center
02:20PM 40.2881 -77.0133 100° East 326 375 17,000  Level New York Center
02:21PM 40.2628 -76.8994 106° East 331 381 17,000 -900 Level New York Center
02:22PM 40.2372 -76.7883 107° East 331 381 15,300 -1,740 Descending New York Center
02:23PM 40.2114 -76.6800 107° East 326 375 13,500 -1,200 Descending New York Center
02:24PM 40.1892 -76.5831 107° East 314 361 13,000 -300 Descending New York Center
02:25PM 40.1614 -76.4667 107° East 309 356 13,000 -60 Level New York Center
02:26PM 40.1328 -76.3422 107° East 305 351 12,900 -420 Descending FAA TRACON SMA TRACON (SMA)
02:26PM 40.1247 -76.3114 109° East 305 351 12,400 -1,620 Descending FAA TRACON SMA TRACON (SMA)
02:27PM 40.1194 -76.2769 101° East 302 348 11,800 -1,920 Descending FAA TRACON SMA TRACON (SMA)
02:27PM 40.1169 -76.2356 95° East 293 337 11,100 -1,860 Descending FAA TRACON SMA TRACON (SMA)
02:27PM 40.1156 -76.2044 93° East 290 334 10,600 -1,380 Descending FAA TRACON SMA TRACON (SMA)
02:28PM 40.1164 -76.1714 88° East 294 338 10,200 -1,320 Descending FAA TRACON SMA TRACON (SMA)
02:28PM 40.1094 -76.1389 106° East 289 333 9,700 -1,800 Descending FAA TRACON SMA TRACON (SMA)
02:28PM 40.1072 -76.0994 94° East 285 328 9,000 -2,040 Descending FAA TRACON SMA TRACON (SMA)
02:29PM 40.1050 -76.0683 95° East 283 326 8,400 -1,380 Descending FAA TRACON SMA TRACON (SMA)
02:29PM 40.1028 -76.0372 95° East 279 321 8,100 -600 Descending FAA TRACON SMA TRACON (SMA)
02:29PM 40.1000 -76.0003 96° East 272 313 8,000 -180 Descending FAA TRACON SMA TRACON (SMA)
02:30PM 40.0983 -75.9731 95° East 271 312 8,000  Level FAA TRACON SMA TRACON (SMA)
02:30PM 40.0950 -75.9350 97° East 272 313 8,000  Level FAA TRACON SMA TRACON (SMA)
02:30PM 40.0931 -75.9019 94° East 272 313 8,000  Level FAA TRACON SMA TRACON (SMA)
02:31PM 40.0911 -75.8722 95° East 270 311 8,000 -300 Level FAA TRACON SMA TRACON (SMA)
02:31PM 40.0892 -75.8431 95° East 268 308 7,800 -1,200 Descending FAA TRACON SMA TRACON (SMA)
02:31PM 40.0869 -75.8056 94° East 266 306 7,200 -1,200 Descending FAA TRACON SMA TRACON (SMA)
02:32PM 40.0844 -75.7764 96° East 264 304 7,000 -300 Descending FAA TRACON SMA TRACON (SMA)
02:32PM 40.0819 -75.7417 95° East 258 297 7,000 -600 Level FAA TRACON SMA TRACON (SMA)
02:32PM 40.0839 -75.7128 85° East 260 299 6,600 -1,500 Descending FAA TRACON SMA TRACON (SMA)
02:33PM 40.0853 -75.6861 86° East 247 284 6,000 -1,680 Descending FAA TRACON SMA TRACON (SMA)
02:33PM 40.0869 -75.6589 85° East 245 282 5,500 -1,680 Descending FAA TRACON SMA TRACON (SMA)
02:33PM 40.0881 -75.6250 88° East 245 282 4,900 -1,680 Descending FAA TRACON SMA TRACON (SMA)
02:34PM 40.0886 -75.5969 89° East 247 284 4,400 -1,200 Descending FAA TRACON SMA TRACON (SMA)
02:34PM 40.0886 -75.5692 90° East 247 284 4,100 -600 Descending FAA TRACON SMA TRACON (SMA)
02:34PM 40.0897 -75.5342 88° East 249 287 4,000 -180 Descending FAA TRACON SMA TRACON (SMA)
02:35PM 40.0906 -75.5064 88° East 249 287 4,000  Level FAA TRACON SMA TRACON (SMA)
02:35PM 40.0850 -75.4806 106° East 246 283 4,000  Level FAA TRACON SMA TRACON (SMA)
02:35PM 40.0683 -75.4536 129° Southeast 252 290 4,000  Level FAA TRACON SMA TRACON (SMA)
02:36PM 40.0544 -75.4331 131° Southeast 256 295 4,000  Level FAA TRACON SMA TRACON (SMA)
02:36PM 40.0392 -75.4117 133° Southeast 255 293 4,000  Level FAA TRACON SMA TRACON (SMA)
02:36PM 40.0142 -75.3981 157° South 255 293 4,000  Level FAA TRACON SMA TRACON (SMA)
02:37PM 39.9931 -75.3886 161° South 257 296 4,000  Level FAA TRACON SMA TRACON (SMA)
02:37PM 39.9733 -75.3800 161° South 250 288 4,000  Level FAA TRACON SMA TRACON (SMA)
02:37PM 39.9522 -75.3703 161° South 253 291 4,000  Level FAA TRACON SMA TRACON (SMA)
02:38PM 39.9275 -75.3583 160° South 240 276 4,000  Level FAA TRACON SMA TRACON (SMA)
02:38PM 39.9108 -75.3511 162° South 206 237 4,000  Level FAA TRACON SMA TRACON (SMA)
02:38PM 39.8950 -75.3442 161° South 191 220 4,000  Level FAA TRACON SMA TRACON (SMA)
02:39PM 39.8775 -75.3381 165° South 201 231 4,000  Level FAA TRACON SMA TRACON (SMA)
02:39PM 39.8600 -75.3294 159° South 191 220 4,000 -180 Level FAA TRACON SMA TRACON (SMA)
02:39PM 39.8408 -75.3211 162° South 190 219 3,900 -780 Descending FAA TRACON SMA TRACON (SMA)
02:40PM 39.8258 -75.3136 159° South 190 219 3,500 -1,200 Descending FAA TRACON SMA TRACON (SMA)
02:40PM 39.8067 -75.3053 162° South 189 217 3,100 -780 Descending FAA TRACON SMA TRACON (SMA)
02:40PM 39.7922 -75.2989 161° South 190 219 3,000 -180 Descending FAA TRACON SMA TRACON (SMA)
02:41PM 39.7758 -75.2911 160° South 191 220 3,000  Level FAA TRACON SMA TRACON (SMA)
02:41PM 39.7567 -75.2825 161° South 190 219 3,000  Level FAA TRACON SMA TRACON (SMA)
02:41PM 39.7450 -75.2703 141° Southeast 192 221 3,000 -300 Level FAA TRACON SMA TRACON (SMA)
02:42PM 39.7444 -75.2500 92° East 166 191 2,800 -780 Descending FAA TRACON SMA TRACON (SMA)
02:42PM 39.7486 -75.2272 77° East 182 209 2,500 -900 Descending FAA TRACON SMA TRACON (SMA)
02:42PM 39.7544 -75.2092 67° East 177 204 2,200 -780 Descending FAA TRACON SMA TRACON (SMA)
02:43PM 39.7656 -75.1964 41° Northeast 178 205 2,000 -360 Descending FAA TRACON SMA TRACON (SMA)
02:43PM 39.7792 -75.1900 20° North 174 200 2,000 -180 Level FAA TRACON SMA TRACON (SMA)
02:43PM 39.7975 -75.1928 353° North 178 205 1,900 -480 Descending FAA TRACON SMA TRACON (SMA)
02:44PM 39.8114 -75.2006 337° Northwest 170 196 1,700 -900 Descending FAA TRACON SMA TRACON (SMA)
02:44PM 39.8247 -75.2056 344° North 166 191 1,300 -1,380 Descending FAA TRACON SMA TRACON (SMA)
02:44PM 39.8403 -75.2131 340° North 153 176 800 -1,200 Descending FAA TRACON SMA TRACON (SMA)
02:45PM 39.8519 -75.2186 340° North 149 171 500 -900 Descending FAA TRACON SMA TRACON (SMA)
02:45PM 39.8667 -75.2256 340° North 151 174 200 -600 Descending FAA TRACON SMA TRACON (SMA)
02:45PM 39.8694 -75.2267 343° North 122 140 100 -120 Descending FAA TRACON SMA TRACON (SMA)
02:46PM 39.8694 -75.2267 30° Northeast 122 140 100  Level FAA TRACON SMA TRACON (SMA)
02:48PM 39.8667 -75.2333 270° West  Level FlightAware Approximate